Terminal Aerodrome Forecast
Issued by NWS Charleston, WV

Current Version | Previous Version | Text Only | Print | Product List | Glossary Off
Versions: 1 2 3 4 5 6 7 8 9 10 11 12 13 14 15 16 17 18 19 20 21 22

000
FTUS41 KRLX 282300 RRA
TAFEKN
TAF
KEKN 282345Z 2900/2924 00000KT P6SM -RADZ OVC015
      TEMPO 2900/2904 4SM -RADZ BR BKN007
     FM290400 00000KT 4SM -DZ BR OVC008
      TEMPO 2904/2907 6SM -RADZ BR OVC015
     FM291000 00000KT 1 1/2SM BR BKN008
     FM291400 00000KT 3SM BR BKN007
     FM291800 00000KT 6SM BR BKN015
     FM292000 33003KT P6SM BKN025
     FM292300 00000KT P6SM BKN015=

USA.gov is the U.S. government's official web portal to all federal, state and local government web resources and services.